createdAt,value
2019-03-08T00:01:01.956Z,99433.32
2019-03-08T00:03:37.446Z,99429.55
2019-03-08T00:06:11.942Z,99431.13
2019-03-08T00:08:46.300Z,99430.00
2019-03-08T00:11:20.563Z,99426.95
2019-03-08T00:13:55.100Z,99430.82
2019-03-08T00:16:29.345Z,99431.36
2019-03-08T00:19:03.623Z,99427.70
2019-03-08T00:21:37.721Z,99421.50
2019-03-08T00:24:12.337Z,99427.47
2019-03-08T00:26:46.620Z,99423.60
2019-03-08T00:29:20.952Z,99427.19
2019-03-08T00:31:56.079Z,99427.19
2019-03-08T00:34:30.453Z,99433.38
2019-03-08T00:37:04.886Z,99435.59
2019-03-08T00:39:39.609Z,99439.37
2019-03-08T00:42:13.743Z,99440.95
2019-03-08T00:44:48.455Z,99452.91
2019-03-08T00:47:22.488Z,99458.68
2019-03-08T00:49:56.738Z,99465.72
2019-03-08T00:52:33.072Z,99462.37
2019-03-08T00:55:08.055Z,99466.32
2019-03-08T00:57:43.551Z,99471.45
2019-03-08T01:00:19.765Z,99472.31
2019-03-08T01:02:54.141Z,99475.86
2019-03-08T01:05:30.199Z,99478.59
2019-03-08T01:08:04.873Z,99478.50
2019-03-08T01:10:39.195Z,99481.54
2019-03-08T01:13:13.255Z,99485.31
2019-03-08T01:15:47.333Z,99491.22
2019-03-08T01:18:21.470Z,99503.17
2019-03-08T01:20:55.770Z,99500.98
2019-03-08T01:23:30.038Z,99512.34
2019-03-08T01:26:04.376Z,99512.34
2019-03-08T01:28:39.559Z,99518.62
2019-03-08T01:31:13.886Z,99524.61
2019-03-08T01:33:48.264Z,99525.15
2019-03-08T01:36:23.587Z,99532.47
2019-03-08T01:38:57.615Z,99531.88
2019-03-08T01:41:31.881Z,99537.09
2019-03-08T01:44:06.128Z,99537.92
2019-03-08T01:46:40.650Z,99544.14
2019-03-08T01:49:14.621Z,99541.86
2019-03-08T01:51:48.873Z,99536.63
2019-03-08T01:54:23.032Z,99535.08
2019-03-08T01:56:57.112Z,99541.67
2019-03-08T01:59:31.131Z,99550.89
2019-03-08T02:02:05.377Z,99557.11
2019-03-08T02:04:39.592Z,99563.48
2019-03-08T02:07:13.931Z,99571.66
2019-03-08T02:09:48.208Z,99579.73
2019-03-08T02:12:23.207Z,99580.28
2019-03-08T02:14:57.433Z,99593.59
2019-03-08T02:17:32.420Z,99590.26
2019-03-08T02:20:07.189Z,99601.45
2019-03-08T02:22:41.478Z,99602.52
2019-03-08T02:25:16.286Z,99605.03
2019-03-08T02:27:51.354Z,99617.52
2019-03-08T02:30:25.549Z,99610.60
2019-03-08T02:32:59.604Z,99621.60
2019-03-08T02:35:33.808Z,99618.02
2019-03-08T02:38:07.950Z,99625.05
2019-03-08T02:40:42.555Z,99631.55
2019-03-08T02:43:18.425Z,99640.58
2019-03-08T02:45:54.708Z,99640.80
2019-03-08T02:48:28.710Z,99647.30
2019-03-08T02:51:03.014Z,99651.39
2019-03-08T02:53:37.324Z,99652.97
2019-03-08T02:56:11.645Z,99658.95
2019-03-08T02:58:45.866Z,99663.05
2019-03-08T03:01:21.187Z,99666.16
2019-03-08T03:03:55.464Z,99672.65
2019-03-08T03:06:29.685Z,99671.00
2019-03-08T03:09:04.120Z,99669.86
2019-03-08T03:11:39.572Z,99686.13
2019-03-08T03:14:15.453Z,99683.63
2019-03-08T03:16:49.553Z,99691.09
2019-03-08T03:19:24.999Z,99686.58
2019-03-08T03:22:00.252Z,99683.11
2019-03-08T03:24:34.523Z,99681.97
2019-03-08T03:27:08.930Z,99681.86
2019-03-08T03:29:43.328Z,99686.48
2019-03-08T03:32:17.490Z,99684.19
2019-03-08T03:34:51.785Z,99686.59
2019-03-08T03:37:25.850Z,99687.52
2019-03-08T03:40:00.356Z,99705.98
2019-03-08T03:42:35.781Z,99710.78
2019-03-08T03:45:10.973Z,99711.86
2019-03-08T03:47:45.126Z,99709.13
2019-03-08T03:50:19.339Z,99714.77
2019-03-08T03:52:53.292Z,99723.36
2019-03-08T03:55:27.632Z,99726.84
2019-03-08T03:58:02.174Z,99733.11
2019-03-08T04:00:36.521Z,99731.13
2019-03-08T04:03:10.921Z,99732.92
2019-03-08T04:05:45.232Z,99731.34
2019-03-08T04:08:19.633Z,99733.86
2019-03-08T04:10:53.933Z,99742.64
2019-03-08T04:13:28.214Z,99738.66
2019-03-08T04:16:02.552Z,99743.50
2019-03-08T04:18:36.948Z,99739.63
2019-03-08T04:21:11.305Z,99742.85
2019-03-08T04:23:45.514Z,99743.92
2019-03-08T04:26:19.596Z,99743.06
2019-03-08T04:28:53.725Z,99737.33
2019-03-08T04:31:28.154Z,99743.81
2019-03-08T04:34:04.015Z,99745.17
2019-03-08T04:36:38.226Z,99749.37
2019-03-08T04:39:12.533Z,99751.77
2019-03-08T04:41:46.626Z,99752.38
2019-03-08T04:44:21.086Z,99754.81
2019-03-08T04:46:55.281Z,99763.59
2019-03-08T04:49:29.356Z,99766.00
2019-03-08T04:52:03.351Z,99768.53
2019-03-08T04:54:37.685Z,99771.44
2019-03-08T04:57:12.098Z,99767.67
2019-03-08T04:59:46.181Z,99762.77
2019-03-08T05:02:20.502Z,99759.09
2019-03-08T05:04:54.796Z,99757.22
2019-03-08T05:07:29.417Z,99770.52
2019-03-08T05:10:03.588Z,99769.69
2019-03-08T05:12:37.603Z,99768.81
2019-03-08T05:15:12.020Z,99762.53
2019-03-08T05:17:46.359Z,99762.14
2019-03-08T05:20:20.582Z,99766.84
2019-03-08T05:22:54.723Z,99764.53
2019-03-08T05:25:29.150Z,99761.09
2019-03-08T05:28:04.847Z,99763.91
2019-03-08T05:30:40.516Z,99759.72
2019-03-08T05:33:14.755Z,99759.94
2019-03-08T05:35:48.989Z,99754.17
2019-03-08T05:38:22.956Z,99757.75
2019-03-08T05:40:57.140Z,99753.55
2019-03-08T05:43:31.535Z,99753.02
2019-03-08T05:46:05.681Z,99747.25
2019-03-08T05:48:40.984Z,99749.15
2019-03-08T05:51:15.291Z,99738.47
2019-03-08T05:53:49.700Z,99742.02
2019-03-08T05:56:23.853Z,99743.09
2019-03-08T05:58:58.256Z,99744.95
2019-03-08T06:01:32.775Z,99743.09
2019-03-08T06:04:07.126Z,99748.53
2019-03-08T06:06:42.388Z,99735.13
2019-03-08T06:09:16.611Z,99730.73
2019-03-08T06:11:50.935Z,99733.23
2019-03-08T06:14:25.069Z,99732.91
2019-03-08T06:16:59.275Z,99730.19
2019-03-08T06:19:34.494Z,99722.02
2019-03-08T06:22:08.980Z,99718.05
2019-03-08T06:24:43.454Z,99708.84
2019-03-08T06:27:17.637Z,99705.27
2019-03-08T06:29:51.925Z,99702.86
2019-03-08T06:32:26.216Z,99691.76
2019-03-08T06:35:00.563Z,99692.61
2019-03-08T06:37:35.024Z,99687.17
2019-03-08T06:40:09.161Z,99687.46
2019-03-08T06:42:43.336Z,99683.70
2019-03-08T06:45:17.881Z,99676.06
2019-03-08T06:47:52.027Z,99674.48
2019-03-08T06:50:27.451Z,99673.63
2019-03-08T06:53:01.744Z,99661.30
2019-03-08T06:55:36.125Z,99661.81
2019-03-08T06:58:10.242Z,99656.15
2019-03-08T07:00:54.709Z,99650.92
2019-03-08T07:03:29.044Z,99652.49
2019-03-08T07:06:03.354Z,99638.55
2019-03-08T07:08:42.066Z,99639.20
2019-03-08T07:11:17.223Z,99635.61
2019-03-08T07:13:51.434Z,99631.42
2019-03-08T07:16:25.681Z,99633.55
2019-03-08T07:19:02.091Z,99633.33
2019-03-08T07:21:44.095Z,99625.16
2019-03-08T07:24:43.096Z,99626.73
2019-03-08T07:27:54.168Z,99611.22
2019-03-08T07:30:45.953Z,99606.30
2019-03-08T07:33:37.043Z,99603.15
2019-03-08T07:36:32.931Z,99588.72
2019-03-08T07:39:21.931Z,99583.49
2019-03-08T07:42:34.096Z,99583.70
2019-03-08T07:45:33.101Z,99578.55
2019-03-08T07:48:20.521Z,99567.98
2019-03-08T07:51:13.574Z,99560.13
2019-03-08T07:54:10.335Z,99556.88
2019-03-08T07:56:53.383Z,99551.75
2019-03-08T07:59:53.759Z,99548.48
2019-03-08T08:02:48.000Z,99548.80
2019-03-08T08:05:32.119Z,99545.77
2019-03-08T08:08:23.946Z,99530.47
2019-03-08T08:11:27.139Z,99532.69
2019-03-08T08:14:26.014Z,99533.19
2019-03-08T08:17:31.507Z,99539.49
2019-03-08T08:20:23.383Z,99524.62
2019-03-08T08:23:17.413Z,99513.72
2019-03-08T08:26:14.417Z,99502.84
2019-03-08T08:29:05.889Z,99507.20
2019-03-08T08:32:12.199Z,99499.03
2019-03-08T08:34:52.394Z,99493.37
2019-03-08T08:37:43.770Z,99486.28
2019-03-08T08:40:36.325Z,99492.86
2019-03-08T08:43:44.584Z,99482.29
2019-03-08T08:46:31.874Z,99481.53
2019-03-08T08:49:38.118Z,99473.63
2019-03-08T08:52:22.801Z,99470.61
2019-03-08T08:55:22.038Z,99458.96
2019-03-08T08:58:30.344Z,99462.22
2019-03-08T09:01:14.677Z,99449.97
2019-03-08T09:04:03.849Z,99443.89
2019-03-08T09:06:50.293Z,99440.34
2019-03-08T09:09:51.802Z,99440.12
2019-03-08T09:12:36.429Z,99425.14
2019-03-08T09:15:19.488Z,99426.59
2019-03-08T09:18:03.096Z,99416.66
2019-03-08T09:21:02.075Z,99415.00
2019-03-08T09:23:59.230Z,99409.56
2019-03-08T09:27:01.599Z,99407.56
2019-03-08T09:30:03.775Z,99391.67
2019-03-08T09:32:59.443Z,99391.67
2019-03-08T09:35:52.665Z,99394.87
2019-03-08T09:38:54.821Z,99393.81
2019-03-08T09:41:47.612Z,99389.83
2019-03-08T09:44:38.579Z,99389.02
2019-03-08T09:47:18.569Z,99384.98
2019-03-08T09:50:13.078Z,99385.42
2019-03-08T09:52:57.481Z,99374.76
2019-03-08T09:55:54.746Z,99374.76
2019-03-08T09:58:44.645Z,99370.67
2019-03-08T10:01:32.719Z,99374.76
2019-03-08T10:04:15.935Z,99371.49
2019-03-08T10:07:27.173Z,99372.03
2019-03-08T10:10:27.549Z,99372.63
2019-03-08T10:13:20.246Z,99371.81
2019-03-08T10:16:03.186Z,99368.04
2019-03-08T10:19:10.238Z,99368.86
2019-03-08T10:22:10.795Z,99359.87
2019-03-08T10:25:04.537Z,99362.37
2019-03-08T10:28:09.888Z,99359.96
2019-03-08T10:31:03.203Z,99361.32
2019-03-08T10:33:53.364Z,99357.23
2019-03-08T10:36:40.845Z,99352.92
2019-03-08T10:39:33.589Z,99351.03
2019-03-08T10:42:17.730Z,99349.66
2019-03-08T10:45:08.195Z,99349.66
2019-03-08T10:48:16.722Z,99342.62
2019-03-08T10:51:09.542Z,99337.72
2019-03-08T10:54:00.243Z,99339.68
2019-03-08T10:56:49.566Z,99339.17
2019-03-08T10:59:34.911Z,99337.39
2019-03-08T11:02:22.003Z,99334.52
2019-03-08T11:05:33.088Z,99339.69
2019-03-08T11:08:29.831Z,99349.14
2019-03-08T11:11:18.064Z,99345.91
2019-03-08T11:14:14.808Z,99356.04
2019-03-08T11:17:03.409Z,99347.94
2019-03-08T11:19:59.182Z,99350.67
2019-03-08T11:23:01.190Z,99354.98
2019-03-08T11:25:55.112Z,99348.34
2019-03-08T11:28:57.393Z,99352.11
2019-03-08T11:31:49.075Z,99344.67
2019-03-08T11:34:33.934Z,99342.89
2019-03-08T11:37:17.076Z,99345.16
2019-03-08T11:40:22.960Z,99339.47
2019-03-08T11:43:06.249Z,99342.86
2019-03-08T11:46:08.601Z,99348.75
2019-03-08T11:49:07.457Z,99348.06
2019-03-08T11:52:12.797Z,99345.25
2019-03-08T11:55:04.421Z,99346.56
2019-03-08T11:57:55.834Z,99349.48
2019-03-08T12:00:48.549Z,99344.80
2019-03-08T12:03:39.121Z,99348.57
2019-03-08T12:06:26.752Z,99345.70
2019-03-08T12:09:35.096Z,99344.26
2019-03-08T12:12:37.132Z,99347.20
2019-03-08T12:15:38.051Z,99348.89
2019-03-08T12:18:34.364Z,99355.78
2019-03-08T12:21:33.151Z,99362.83
2019-03-08T12:24:25.559Z,99354.88
2019-03-08T12:27:16.072Z,99366.86
2019-03-08T12:30:00.172Z,99368.13
2019-03-08T12:32:49.766Z,99369.56
2019-03-08T12:35:49.695Z,99375.41
2019-03-08T12:38:41.365Z,99376.31
2019-03-08T12:41:24.627Z,99377.76
2019-03-08T12:44:30.032Z,99379.95
2019-03-08T12:47:35.035Z,99376.33
2019-03-08T12:50:21.425Z,99385.02
2019-03-08T12:53:07.137Z,99380.34
2019-03-08T12:56:00.318Z,99386.17
2019-03-08T12:58:53.371Z,99382.45
2019-03-08T13:01:46.018Z,99391.70
2019-03-08T13:04:36.782Z,99395.31
2019-03-08T13:07:36.897Z,99391.37
2019-03-08T13:10:14.462Z,99388.02
2019-03-08T13:12:48.735Z,99388.78
2019-03-08T13:15:23.101Z,99388.47
2019-03-08T13:17:57.599Z,99395.20
2019-03-08T13:20:32.186Z,99399.83
2019-03-08T13:23:06.632Z,99400.99
2019-03-08T13:25:40.797Z,99401.73
2019-03-08T13:28:17.135Z,99402.73
2019-03-08T13:30:51.423Z,99403.92
2019-03-08T13:33:27.015Z,99405.52
2019-03-08T13:36:01.401Z,99404.06
2019-03-08T13:38:35.591Z,99411.42
2019-03-08T13:41:13.011Z,99420.42
2019-03-08T13:43:47.159Z,99424.52
2019-03-08T13:46:21.564Z,99419.59
2019-03-08T13:48:55.769Z,99422.83
2019-03-08T13:51:31.041Z,99422.83
2019-03-08T13:54:05.343Z,99423.91
2019-03-08T13:56:39.485Z,99426.64
2019-03-08T13:59:14.282Z,99429.37
2019-03-08T14:01:48.560Z,99431.23
2019-03-08T14:04:23.166Z,99431.55
2019-03-08T14:06:57.450Z,99438.91
2019-03-08T14:09:31.789Z,99434.82
2019-03-08T14:12:06.163Z,99431.23
2019-03-08T14:14:41.416Z,99428.00
2019-03-08T14:17:15.744Z,99424.42
2019-03-08T14:19:49.815Z,99430.19
2019-03-08T14:22:24.367Z,99427.47
2019-03-08T14:24:58.581Z,99425.28
2019-03-08T14:27:32.633Z,99428.00
2019-03-08T14:30:08.332Z,99426.92
2019-03-08T14:32:42.764Z,99431.02
2019-03-08T14:35:17.437Z,99427.55
2019-03-08T14:37:52.438Z,99430.42
2019-03-08T14:40:45.149Z,99434.45
2019-03-08T14:43:28.096Z,99436.02
2019-03-08T14:46:07.343Z,99438.91
2019-03-08T14:48:42.567Z,99436.50
2019-03-08T14:51:16.944Z,99435.45
2019-03-08T14:53:51.038Z,99446.50
2019-03-08T14:56:25.332Z,99435.10
2019-03-08T14:58:59.810Z,99436.47
2019-03-08T15:01:34.124Z,99438.91
2019-03-08T15:04:08.697Z,99437.55
2019-03-08T15:06:43.117Z,99439.19
2019-03-08T15:09:17.605Z,99439.11
2019-03-08T15:11:52.237Z,99449.50
2019-03-08T15:14:30.263Z,99445.27
2019-03-08T15:17:09.222Z,99450.88
2019-03-08T15:19:40.322Z,99455.13
2019-03-08T15:22:14.766Z,99466.36
2019-03-08T15:24:48.921Z,99465.50
2019-03-08T15:27:25.668Z,99465.22
2019-03-08T15:30:00.371Z,99462.72
2019-03-08T15:32:34.719Z,99466.81
2019-03-08T15:35:10.585Z,99463.09
2019-03-08T15:37:45.061Z,99465.38
2019-03-08T15:40:37.418Z,99462.73
2019-03-08T15:43:13.915Z,99465.16
2019-03-08T15:45:47.836Z,99465.82
2019-03-08T15:48:22.014Z,99474.63
2019-03-08T15:50:56.470Z,99472.10
2019-03-08T15:53:30.867Z,99473.23
2019-03-08T15:56:05.283Z,99467.39
2019-03-08T15:58:40.050Z,99469.91
2019-03-08T16:01:14.273Z,99475.03
2019-03-08T16:03:48.368Z,99482.79
2019-03-08T16:06:23.628Z,99487.20
2019-03-08T16:08:57.749Z,99484.31
2019-03-08T16:11:32.021Z,99491.42
2019-03-08T16:14:08.991Z,99496.26
2019-03-08T16:16:46.931Z,99492.94
2019-03-08T16:19:24.786Z,99499.19
2019-03-08T16:21:57.438Z,99495.67
2019-03-08T16:24:33.627Z,99496.57
2019-03-08T16:27:07.896Z,99483.22
2019-03-08T16:29:41.840Z,99496.26
2019-03-08T16:32:40.964Z,99502.94
2019-03-08T16:35:15.202Z,99492.63
2019-03-08T16:38:08.042Z,99489.81
2019-03-08T16:41:05.264Z,99494.58
2019-03-08T16:43:46.729Z,99491.84
2019-03-08T16:46:27.129Z,99491.26
2019-03-08T16:49:09.443Z,99486.61
2019-03-08T16:52:05.043Z,99492.30
2019-03-08T16:54:57.482Z,99489.02
2019-03-08T16:57:42.824Z,99488.20
2019-03-08T17:00:25.477Z,99491.21
2019-03-08T17:03:08.515Z,99487.04
2019-03-08T17:06:00.223Z,99490.63
2019-03-08T17:08:42.277Z,99491.21
2019-03-08T17:11:38.553Z,99493.13
2019-03-08T17:14:34.473Z,99493.47
2019-03-08T17:17:33.822Z,99491.33
2019-03-08T17:20:32.263Z,99487.34
2019-03-08T17:23:24.702Z,99487.81
2019-03-08T17:26:14.955Z,99480.89
2019-03-08T17:29:14.206Z,99483.47
2019-03-08T17:32:02.556Z,99488.77
2019-03-08T17:34:53.865Z,99483.84
2019-03-08T17:37:55.715Z,99477.02
2019-03-08T17:40:48.365Z,99481.73
2019-03-08T17:43:42.551Z,99484.59
2019-03-08T17:46:36.534Z,99482.87
2019-03-08T17:49:33.963Z,99483.69
2019-03-08T17:52:34.516Z,99477.72
2019-03-08T17:55:24.186Z,99477.64
2019-03-08T17:58:20.382Z,99471.23
2019-03-08T18:01:19.168Z,99471.01
2019-03-08T18:04:02.233Z,99475.48
2019-03-08T18:07:01.831Z,99470.03
2019-03-08T18:09:50.448Z,99469.41
2019-03-08T18:12:46.282Z,99468.52
2019-03-08T18:15:40.006Z,99467.22
2019-03-08T18:18:32.027Z,99458.95
2019-03-08T18:21:19.684Z,99460.93
2019-03-08T18:24:28.173Z,99451.13
2019-03-08T18:27:27.167Z,99449.30
2019-03-08T18:30:29.187Z,99460.23
2019-03-08T18:33:37.244Z,99455.59
2019-03-08T18:36:18.232Z,99452.31
2019-03-08T18:39:20.440Z,99453.63
2019-03-08T18:42:22.351Z,99451.80
2019-03-08T18:45:19.913Z,99451.80
2019-03-08T18:48:20.092Z,99446.02
2019-03-08T18:51:07.652Z,99441.34
2019-03-08T18:54:03.180Z,99438.06
2019-03-08T18:56:55.007Z,99441.61
2019-03-08T19:00:00.368Z,99440.88
2019-03-08T19:02:57.305Z,99440.88
2019-03-08T19:05:54.248Z,99437.09
2019-03-08T19:08:53.969Z,99434.05
2019-03-08T19:11:42.421Z,99431.94
2019-03-08T19:14:35.328Z,99427.22
2019-03-08T19:17:37.479Z,99431.86
2019-03-08T19:20:39.299Z,99432.69
2019-03-08T19:23:23.290Z,99432.69
2019-03-08T19:26:16.340Z,99428.19
2019-03-08T19:28:59.258Z,99426.16
2019-03-08T19:31:42.476Z,99426.16
2019-03-08T19:34:28.185Z,99428.55
2019-03-08T19:37:11.198Z,99414.58
2019-03-08T19:40:04.812Z,99418.12
2019-03-08T19:42:51.768Z,99423.91
2019-03-08T19:45:51.127Z,99422.84
2019-03-08T19:48:42.359Z,99420.11
2019-03-08T19:51:41.297Z,99419.80
2019-03-08T19:54:23.199Z,99413.95
2019-03-08T19:57:11.079Z,99417.89
2019-03-08T20:00:06.790Z,99412.97
2019-03-08T20:02:48.746Z,99406.14
2019-03-08T20:05:35.317Z,99403.41
2019-03-08T20:08:23.795Z,99397.64
2019-03-08T20:11:16.291Z,99394.83
2019-03-08T20:14:03.184Z,99387.97
2019-03-08T20:16:55.642Z,99385.23
2019-03-08T20:20:02.011Z,99385.23
2019-03-08T20:22:54.446Z,99378.56
2019-03-08T20:25:51.193Z,99376.73
2019-03-08T20:28:37.961Z,99371.03
2019-03-08T20:31:29.259Z,99369.05
2019-03-08T20:34:20.803Z,99370.20
2019-03-08T20:37:11.593Z,99364.29
2019-03-08T20:40:09.255Z,99371.19
2019-03-08T20:42:51.618Z,99363.78
2019-03-08T20:45:39.595Z,99357.47
2019-03-08T20:48:13.785Z,99350.12
2019-03-08T20:50:47.971Z,99353.75
2019-03-08T20:53:25.060Z,99349.89
2019-03-08T20:55:59.491Z,99351.59
2019-03-08T20:58:34.034Z,99348.21
2019-03-08T21:01:09.290Z,99345.79
2019-03-08T21:03:43.372Z,99340.84
2019-03-08T21:06:17.424Z,99335.61
2019-03-08T21:08:52.115Z,99343.50
2019-03-08T21:11:27.153Z,99336.47
2019-03-08T21:14:02.322Z,99333.50
2019-03-08T21:16:37.412Z,99336.47
2019-03-08T21:19:11.844Z,99326.91
2019-03-08T21:21:46.237Z,99330.22
2019-03-08T21:24:20.181Z,99327.42
2019-03-08T21:26:54.641Z,99334.01
2019-03-08T21:29:31.297Z,99329.64
2019-03-08T21:32:07.452Z,99325.40
2019-03-08T21:34:41.555Z,99322.97
2019-03-08T21:37:15.700Z,99320.41
2019-03-08T21:39:49.756Z,99318.80
2019-03-08T21:42:24.026Z,99321.84
2019-03-08T21:45:00.340Z,99309.76
2019-03-08T21:47:36.186Z,99316.14
2019-03-08T21:50:11.587Z,99313.11
2019-03-08T21:52:47.892Z,99306.75
2019-03-08T21:55:22.253Z,99306.45
2019-03-08T21:57:56.649Z,99301.05
2019-03-08T22:00:31.525Z,99299.92
2019-03-08T22:03:08.236Z,99293.38
2019-03-08T22:05:44.626Z,99298.56
2019-03-08T22:08:19.718Z,99299.86
2019-03-08T22:11:17.477Z,99300.44
2019-03-08T22:13:52.385Z,99296.89
2019-03-08T22:16:26.746Z,99293.03
2019-03-08T22:19:01.902Z,99289.98
2019-03-08T22:21:38.113Z,99291.90
2019-03-08T22:24:13.621Z,99292.72
2019-03-08T22:26:47.865Z,99295.14
2019-03-08T22:29:22.219Z,99292.41
2019-03-08T22:31:56.659Z,99302.11
2019-03-08T22:34:31.006Z,99294.39
2019-03-08T22:37:05.198Z,99295.45
2019-03-08T22:39:40.806Z,99300.91
2019-03-08T22:42:15.127Z,99301.22
2019-03-08T22:44:49.492Z,99300.16
2019-03-08T22:47:23.731Z,99297.36
2019-03-08T22:49:58.039Z,99302.52
2019-03-08T22:52:35.070Z,99302.20
2019-03-08T22:55:12.159Z,99295.62
2019-03-08T22:57:46.250Z,99305.48
2019-03-08T23:01:23.687Z,99297.53
2019-03-08T23:03:58.087Z,99297.83
2019-03-08T23:06:32.496Z,99292.61
2019-03-08T23:09:08.353Z,99290.94
2019-03-08T23:11:43.976Z,99299.95
2019-03-08T23:14:18.102Z,99295.75
2019-03-08T23:16:52.337Z,99300.73
2019-03-08T23:19:26.670Z,99302.58
2019-03-08T23:22:01.948Z,99302.58
2019-03-08T23:24:37.641Z,99305.55
2019-03-08T23:27:39.676Z,99309.95
2019-03-08T23:30:19.287Z,99311.65
2019-03-08T23:32:55.413Z,99318.14
2019-03-08T23:35:29.675Z,99317.11
2019-03-08T23:38:04.256Z,99325.78
2019-03-08T23:40:38.671Z,99328.03
2019-03-08T23:43:12.808Z,99329.06
2019-03-08T23:45:47.184Z,99335.06
2019-03-08T23:48:21.453Z,99336.36
2019-03-08T23:50:56.576Z,99339.09
2019-03-08T23:53:31.979Z,99338.78
2019-03-08T23:56:06.397Z,99340.07
2019-03-08T23:58:40.700Z,99339.33
